createdAt,value
2023-02-03T00:00:56.871Z,10.00
2023-02-03T00:04:02.091Z,9.73
2023-02-03T00:07:06.022Z,10.20
2023-02-03T00:10:10.816Z,9.70
2023-02-03T00:13:15.722Z,10.47
2023-02-03T00:16:19.522Z,10.10
2023-02-03T00:19:24.676Z,9.03
2023-02-03T00:22:28.369Z,10.00
2023-02-03T00:25:32.005Z,10.23
2023-02-03T00:28:35.716Z,9.33
2023-02-03T00:31:39.735Z,8.17
2023-02-03T00:34:44.803Z,8.50
2023-02-03T00:37:54.111Z,8.17
2023-02-03T00:40:57.877Z,9.90
2023-02-03T00:44:01.482Z,8.80
2023-02-03T00:47:05.172Z,9.00
2023-02-03T00:50:11.907Z,7.90
2023-02-03T00:53:16.048Z,6.90
2023-02-03T00:56:19.671Z,6.53
2023-02-03T00:59:23.340Z,5.50
2023-02-03T01:02:27.190Z,5.40
2023-02-03T01:05:32.312Z,5.30
2023-02-03T01:08:35.952Z,5.37
2023-02-03T01:11:39.587Z,4.07
2023-02-03T01:14:43.246Z,5.57
2023-02-03T01:17:46.976Z,4.70
2023-02-03T01:20:51.978Z,4.50
2023-02-03T01:23:56.025Z,4.20
2023-02-03T01:26:59.615Z,3.37
2023-02-03T01:30:03.309Z,3.33
2023-02-03T01:33:06.995Z,2.80
2023-02-03T01:36:12.166Z,3.63
2023-02-03T01:39:16.148Z,3.17
2023-02-03T01:42:19.874Z,3.47
2023-02-03T01:45:23.484Z,2.83
2023-02-03T01:48:27.151Z,2.50
2023-02-03T01:51:33.185Z,2.57
2023-02-03T01:54:44.633Z,3.43
2023-02-03T01:57:55.452Z,3.30
2023-02-03T02:01:00.819Z,3.00
2023-02-03T02:04:07.228Z,3.47
2023-02-03T02:07:12.666Z,3.80
2023-02-03T02:10:16.526Z,4.10
2023-02-03T02:13:22.152Z,3.77
2023-02-03T02:16:40.525Z,4.13
2023-02-03T02:20:34.634Z,3.80
2023-02-03T02:24:31.209Z,4.23
2023-02-03T02:28:31.063Z,4.57
2023-02-03T02:32:06.376Z,3.87
2023-02-03T02:35:26.361Z,4.67
2023-02-03T02:38:47.745Z,5.23
2023-02-03T02:41:59.650Z,3.80
2023-02-03T02:45:15.819Z,4.10
2023-02-03T02:48:28.145Z,4.10
2023-02-03T02:51:34.608Z,3.77
2023-02-03T02:54:43.498Z,3.67
2023-02-03T02:57:49.329Z,4.57
2023-02-03T03:00:52.941Z,3.70
2023-02-03T03:04:00.594Z,3.17
2023-02-03T03:07:12.744Z,3.77
2023-02-03T03:10:24.772Z,3.70
2023-02-03T03:13:36.283Z,3.40
2023-02-03T03:16:45.926Z,3.87
2023-02-03T03:19:57.220Z,3.07
2023-02-03T03:23:08.344Z,2.60
2023-02-03T03:26:19.339Z,3.43
2023-02-03T03:29:30.540Z,3.23
2023-02-03T03:32:35.073Z,3.57
2023-02-03T03:35:49.873Z,3.10
2023-02-03T03:39:04.358Z,2.70
2023-02-03T03:42:21.146Z,3.40
2023-02-03T03:45:32.305Z,3.60
2023-02-03T03:48:47.871Z,3.70
2023-02-03T03:52:00.161Z,3.40
2023-02-03T03:55:08.237Z,3.20
2023-02-03T03:58:18.056Z,3.50
2023-02-03T04:01:24.192Z,4.13
2023-02-03T04:04:29.316Z,3.93
2023-02-03T04:07:45.700Z,3.80
2023-02-03T04:10:49.414Z,3.60
2023-02-03T04:13:52.971Z,4.47
2023-02-03T04:16:56.691Z,4.97
2023-02-03T04:20:00.325Z,4.30
2023-02-03T04:23:05.348Z,4.63
2023-02-03T04:26:08.991Z,5.87
2023-02-03T04:29:12.838Z,5.73
2023-02-03T04:32:16.685Z,5.40
2023-02-03T04:35:20.732Z,4.90
2023-02-03T04:38:25.777Z,4.97
2023-02-03T04:41:29.399Z,5.00
2023-02-03T04:44:33.000Z,4.90
2023-02-03T04:47:37.122Z,6.07
2023-02-03T04:50:40.766Z,4.83
2023-02-03T04:53:45.833Z,4.67
2023-02-03T04:56:49.517Z,5.33
2023-02-03T04:59:53.152Z,4.70
2023-02-03T05:02:57.216Z,4.13
2023-02-03T05:06:01.062Z,3.67
2023-02-03T05:09:06.210Z,4.00
2023-02-03T05:12:09.895Z,3.50
2023-02-03T05:15:13.498Z,3.70
2023-02-03T05:18:17.217Z,3.37
2023-02-03T05:21:20.803Z,3.80
2023-02-03T05:24:25.874Z,4.47
2023-02-03T05:27:29.508Z,3.40
2023-02-03T05:30:33.163Z,4.17
2023-02-03T05:33:36.753Z,3.57
2023-02-03T05:36:40.453Z,4.03
2023-02-03T05:39:45.481Z,3.87
2023-02-03T05:42:49.437Z,3.63
2023-02-03T05:45:53.045Z,3.53
2023-02-03T05:48:56.711Z,3.67
2023-02-03T05:52:00.548Z,4.13
2023-02-03T05:55:06.417Z,3.93
2023-02-03T05:58:10.031Z,3.60
2023-02-03T06:01:13.669Z,3.90
2023-02-03T06:04:17.485Z,3.67
2023-02-03T06:07:21.114Z,3.57
2023-02-03T06:10:27.668Z,3.80
2023-02-03T06:13:31.550Z,4.07
2023-02-03T06:16:35.234Z,3.43
2023-02-03T06:19:38.880Z,3.97
2023-02-03T06:22:43.553Z,4.43
2023-02-03T06:25:50.569Z,3.47
2023-02-03T06:28:54.225Z,4.03
2023-02-03T06:31:58.114Z,4.33
2023-02-03T06:35:01.924Z,4.77
2023-02-03T06:38:05.587Z,4.37
2023-02-03T06:41:10.636Z,4.30
2023-02-03T06:44:14.316Z,4.67
2023-02-03T06:47:18.072Z,4.40
2023-02-03T06:50:21.900Z,4.20
2023-02-03T06:53:25.900Z,4.20
2023-02-03T06:56:31.152Z,3.57
2023-02-03T06:59:34.851Z,3.70
2023-02-03T07:02:38.600Z,3.80
2023-02-03T07:05:42.268Z,3.53
2023-02-03T07:08:46.015Z,3.40
2023-02-03T07:11:51.158Z,3.30
2023-02-03T07:14:54.776Z,3.50
2023-02-03T07:17:58.530Z,3.43
2023-02-03T07:21:02.126Z,3.00
2023-02-03T07:24:06.751Z,3.80
2023-02-03T07:27:11.921Z,3.10
2023-02-03T07:30:17.032Z,3.40
2023-02-03T07:33:20.832Z,3.17
2023-02-03T07:36:24.815Z,3.90
2023-02-03T07:39:28.449Z,3.23
2023-02-03T07:42:33.608Z,3.07
2023-02-03T07:45:37.188Z,2.90
2023-02-03T07:48:41.294Z,2.40
2023-02-03T07:51:44.912Z,2.10
2023-02-03T07:54:48.476Z,2.43
2023-02-03T07:57:56.654Z,2.00
2023-02-03T08:01:01.210Z,2.37
2023-02-03T08:04:05.755Z,2.97
2023-02-03T08:07:09.371Z,2.23
2023-02-03T08:10:16.149Z,2.20
2023-02-03T08:13:21.157Z,2.93
2023-02-03T08:16:24.807Z,2.77
2023-02-03T08:19:28.603Z,2.60
2023-02-03T08:22:32.247Z,2.80
2023-02-03T08:25:36.268Z,3.50
2023-02-03T08:28:41.346Z,2.50
2023-02-03T08:31:45.571Z,3.20
2023-02-03T08:34:50.525Z,3.10
2023-02-03T08:37:54.457Z,3.67
2023-02-03T08:40:58.221Z,3.07
2023-02-03T08:44:03.350Z,3.37
2023-02-03T08:47:08.046Z,3.07
2023-02-03T08:50:13.592Z,3.43
2023-02-03T08:53:17.339Z,3.03
2023-02-03T08:56:22.394Z,4.33
2023-02-03T08:59:27.643Z,3.30
2023-02-03T09:02:31.301Z,3.30
2023-02-03T09:05:36.203Z,2.37
2023-02-03T09:08:39.970Z,2.73
2023-02-03T09:11:44.710Z,2.40
2023-02-03T09:14:49.755Z,2.73
2023-02-03T09:17:54.026Z,3.23
2023-02-03T09:21:03.431Z,3.57
2023-02-03T09:24:07.605Z,4.50
2023-02-03T09:27:11.299Z,4.57
2023-02-03T09:30:16.913Z,3.17
2023-02-03T09:33:20.579Z,4.43
2023-02-03T09:36:24.306Z,4.03
2023-02-03T09:39:27.920Z,3.57
2023-02-03T09:42:57.527Z,4.17
2023-02-03T09:46:13.863Z,4.17
2023-02-03T09:49:26.735Z,3.80
2023-02-03T09:52:34.757Z,4.20
2023-02-03T09:55:44.175Z,4.43
2023-02-03T09:58:47.856Z,4.50
2023-02-03T10:02:02.649Z,3.87
2023-02-03T10:05:18.759Z,3.47
2023-02-03T10:08:45.902Z,4.23
2023-02-03T10:12:17.562Z,4.37
2023-02-03T10:15:50.349Z,4.23
2023-02-03T10:18:58.499Z,5.17
2023-02-03T10:22:04.973Z,4.93
2023-02-03T10:25:24.929Z,5.30
2023-02-03T10:28:33.987Z,3.20
2023-02-03T10:31:39.069Z,5.40
2023-02-03T10:34:49.471Z,4.77
2023-02-03T10:38:00.667Z,4.70
2023-02-03T10:41:05.529Z,4.10
2023-02-03T10:44:14.686Z,4.03
2023-02-03T10:47:34.355Z,4.10
2023-02-03T10:50:49.210Z,5.10
2023-02-03T10:53:54.507Z,4.53
2023-02-03T10:57:06.205Z,5.13
2023-02-03T11:00:24.544Z,4.37
2023-02-03T11:03:30.758Z,2.80
2023-02-03T11:06:36.845Z,4.97
2023-02-03T11:09:43.560Z,5.00
2023-02-03T11:12:47.311Z,3.40
2023-02-03T11:16:00.711Z,4.60
2023-02-03T11:19:07.413Z,4.87
2023-02-03T11:22:13.669Z,5.43
2023-02-03T11:25:22.823Z,4.30
2023-02-03T11:28:30.433Z,4.07
2023-02-03T11:31:37.725Z,4.40
2023-02-03T11:34:48.675Z,4.23
2023-02-03T11:37:56.667Z,4.50
2023-02-03T11:41:04.205Z,4.73
2023-02-03T11:44:17.935Z,5.17
2023-02-03T11:47:23.830Z,4.97
2023-02-03T11:50:34.955Z,4.30
2023-02-03T11:54:07.693Z,5.03
2023-02-03T11:57:34.789Z,5.37
2023-02-03T12:00:50.218Z,4.67
2023-02-03T12:04:25.868Z,5.00
2023-02-03T12:08:05.972Z,3.57
2023-02-03T12:11:29.811Z,4.73
2023-02-03T12:14:50.688Z,4.47
2023-02-03T12:18:35.010Z,3.97
2023-02-03T12:21:51.432Z,3.53
2023-02-03T12:25:10.205Z,4.47
2023-02-03T12:28:40.977Z,4.03
2023-02-03T12:31:52.908Z,4.67
2023-02-03T12:35:13.942Z,4.30
2023-02-03T12:38:31.563Z,4.40
2023-02-03T12:41:42.781Z,5.07
2023-02-03T12:44:55.131Z,4.13
2023-02-03T12:48:06.632Z,4.00
2023-02-03T12:51:17.622Z,3.93
2023-02-03T12:54:38.648Z,4.10
2023-02-03T12:57:54.969Z,3.20
2023-02-03T13:01:07.841Z,4.67
2023-02-03T13:04:26.244Z,3.10
2023-02-03T13:07:40.217Z,4.00
2023-02-03T13:10:51.221Z,3.97
2023-02-03T13:14:18.789Z,3.93
2023-02-03T13:17:32.463Z,3.43
2023-02-03T13:20:38.112Z,3.27
2023-02-03T13:23:47.553Z,3.70
2023-02-03T13:27:19.590Z,4.43
2023-02-03T13:30:51.179Z,3.70
2023-02-03T13:34:37.064Z,3.50
2023-02-03T13:38:45.389Z,3.40
2023-02-03T13:41:56.247Z,4.10
2023-02-03T13:45:10.186Z,3.70
2023-02-03T13:48:22.212Z,2.93
2023-02-03T13:51:34.781Z,3.43
2023-02-03T13:54:45.364Z,4.00
2023-02-03T13:57:53.991Z,4.30
2023-02-03T14:01:45.917Z,3.77
2023-02-03T14:04:55.131Z,3.90
2023-02-03T14:08:53.196Z,4.03
2023-02-03T14:12:42.665Z,4.60
2023-02-03T14:15:48.205Z,4.23
2023-02-03T14:18:51.913Z,3.70
2023-02-03T14:22:00.066Z,4.13
2023-02-03T14:25:09.391Z,4.73
2023-02-03T14:28:17.292Z,4.93
2023-02-03T14:31:23.887Z,4.00
2023-02-03T14:34:36.202Z,3.90
2023-02-03T14:37:40.516Z,3.87
2023-02-03T14:40:57.577Z,4.53
2023-02-03T14:44:16.927Z,4.17
2023-02-03T14:47:38.409Z,3.70
2023-02-03T14:51:02.804Z,4.23
2023-02-03T14:54:30.910Z,3.87
2023-02-03T14:57:47.844Z,3.73
2023-02-03T15:00:52.743Z,5.17
2023-02-03T15:04:24.908Z,4.20
2023-02-03T15:07:44.940Z,4.50
2023-02-03T15:10:48.570Z,4.30
2023-02-03T15:13:54.115Z,4.40
2023-02-03T15:17:01.684Z,4.70
2023-02-03T15:20:27.244Z,4.53
2023-02-03T15:23:48.163Z,4.23
2023-02-03T15:26:54.962Z,4.33
2023-02-03T15:30:15.193Z,3.77
2023-02-03T15:33:22.729Z,3.60
2023-02-03T15:36:34.528Z,3.43
2023-02-03T15:39:53.878Z,4.30
2023-02-03T15:43:04.510Z,5.87
2023-02-03T15:46:19.373Z,4.77
2023-02-03T15:49:29.536Z,4.30
2023-02-03T15:52:40.611Z,3.63
2023-02-03T15:55:49.249Z,3.97
2023-02-03T15:58:53.033Z,4.67
2023-02-03T16:01:58.582Z,3.80
2023-02-03T16:05:15.396Z,4.00
2023-02-03T16:08:45.788Z,4.27
2023-02-03T16:11:49.624Z,4.10
2023-02-03T16:14:55.262Z,4.17
2023-02-03T16:18:00.395Z,3.53
2023-02-03T16:21:04.671Z,5.60
2023-02-03T16:24:46.065Z,4.60
2023-02-03T16:28:15.625Z,4.23
2023-02-03T16:31:38.854Z,5.50
2023-02-03T16:35:01.858Z,5.23
2023-02-03T16:38:27.205Z,4.87
2023-02-03T16:41:49.783Z,5.13
2023-02-03T16:45:10.585Z,3.73
2023-02-03T16:48:32.300Z,4.57
2023-02-03T16:51:42.021Z,4.40
2023-02-03T16:54:45.726Z,5.60
2023-02-03T16:57:51.395Z,4.30
2023-02-03T17:00:56.038Z,5.70
2023-02-03T17:03:59.623Z,4.20
2023-02-03T17:07:07.833Z,3.90
2023-02-03T17:10:12.277Z,4.70
2023-02-03T17:13:17.199Z,4.80
2023-02-03T17:16:24.778Z,4.70
2023-02-03T17:19:28.332Z,3.67
2023-02-03T17:22:34.072Z,4.83
2023-02-03T17:25:40.217Z,5.40
2023-02-03T17:28:44.367Z,4.87
2023-02-03T17:31:48.224Z,4.90
2023-02-03T17:34:54.622Z,5.13
2023-02-03T17:38:02.737Z,4.87
2023-02-03T17:54:52.292Z,4.53
2023-02-03T17:57:56.001Z,5.53
2023-02-03T18:00:59.797Z,5.17
2023-02-03T18:04:06.601Z,4.50
2023-02-03T18:07:10.445Z,5.40
2023-02-03T18:10:15.369Z,4.77
2023-02-03T18:13:23.364Z,4.33
2023-02-03T18:16:33.151Z,5.43
2023-02-03T18:19:36.695Z,6.80
2023-02-03T18:22:40.404Z,5.27
2023-02-03T18:25:45.593Z,5.10
2023-02-03T18:28:56.761Z,6.23
2023-02-03T18:32:00.523Z,5.17
2023-02-03T18:35:06.768Z,5.67
2023-02-03T18:38:11.316Z,5.77
2023-02-03T18:41:21.007Z,5.53
2023-02-03T18:44:26.345Z,5.97
2023-02-03T18:47:30.310Z,5.70
2023-02-03T18:50:37.190Z,5.80
2023-02-03T18:53:45.196Z,5.83
2023-02-03T18:56:52.626Z,5.90
2023-02-03T18:59:58.696Z,6.00
2023-02-03T19:03:03.574Z,5.20
2023-02-03T19:06:13.868Z,4.40
2023-02-03T19:09:19.354Z,6.10
2023-02-03T19:12:26.332Z,5.70
2023-02-03T19:15:30.324Z,7.23
2023-02-03T19:18:35.503Z,6.03
2023-02-03T19:21:39.566Z,6.83
2023-02-03T19:24:43.274Z,6.53
2023-02-03T19:27:48.279Z,6.77
2023-02-03T19:30:57.526Z,5.70
2023-02-03T19:34:03.795Z,5.47
2023-02-03T19:37:08.113Z,6.93
2023-02-03T19:40:12.996Z,6.80
2023-02-03T19:43:18.152Z,7.40
2023-02-03T19:46:22.748Z,6.70
2023-02-03T19:49:26.680Z,6.27
2023-02-03T19:52:30.562Z,6.93
2023-02-03T19:55:34.338Z,4.87
2023-02-03T19:58:39.752Z,6.93
2023-02-03T20:01:43.554Z,5.90
2023-02-03T20:04:47.658Z,6.27
2023-02-03T20:07:52.579Z,5.30
2023-02-03T20:10:56.269Z,5.30
2023-02-03T20:14:01.285Z,6.03
2023-02-03T20:17:06.236Z,5.40
2023-02-03T20:20:10.893Z,5.97
2023-02-03T20:23:14.619Z,6.20
2023-02-03T20:26:18.461Z,5.90
2023-02-03T20:29:24.030Z,6.27
2023-02-03T20:32:27.719Z,6.57
2023-02-03T20:35:32.120Z,6.07
2023-02-03T20:38:35.800Z,4.50
2023-02-03T20:41:39.450Z,5.07
2023-02-03T20:44:45.630Z,6.00
2023-02-03T20:47:50.058Z,5.17
2023-02-03T20:50:54.117Z,6.60
2023-02-03T20:53:57.802Z,5.20
2023-02-03T20:57:01.348Z,6.13
2023-02-03T21:00:17.146Z,6.23
2023-02-03T21:03:38.805Z,6.23
2023-02-03T21:06:42.425Z,5.03
2023-02-03T21:09:46.039Z,6.23
2023-02-03T21:12:50.276Z,5.67
2023-02-03T21:15:59.579Z,6.50
2023-02-03T21:19:03.987Z,5.30
2023-02-03T21:22:19.062Z,6.67
2023-02-03T21:25:30.477Z,6.37
2023-02-03T21:28:34.410Z,6.63
2023-02-03T21:31:41.143Z,6.30
2023-02-03T21:34:46.195Z,7.43
2023-02-03T21:37:50.008Z,7.43
2023-02-03T21:40:53.568Z,6.53
2023-02-03T21:43:58.957Z,7.03
2023-02-03T21:47:06.493Z,7.47
2023-02-03T21:50:30.492Z,6.10
2023-02-03T21:53:36.291Z,6.40
2023-02-03T21:56:43.217Z,6.73
2023-02-03T21:59:49.311Z,6.87
2023-02-03T22:03:00.771Z,6.10
2023-02-03T22:06:20.170Z,5.90
2023-02-03T22:09:25.978Z,3.90
2023-02-03T22:12:29.597Z,5.00
2023-02-03T22:15:33.442Z,4.27
2023-02-03T22:18:39.840Z,3.87
2023-02-03T22:21:43.443Z,5.00
2023-02-03T22:24:47.030Z,4.40
2023-02-03T22:27:52.928Z,4.13
2023-02-03T22:30:56.657Z,3.33
2023-02-03T22:34:01.806Z,3.70
2023-02-03T22:37:05.386Z,3.57
2023-02-03T22:40:10.843Z,2.93
2023-02-03T22:43:14.585Z,3.30
2023-02-03T22:46:18.195Z,3.07
2023-02-03T22:49:23.380Z,3.50
2023-02-03T22:52:27.055Z,3.47
2023-02-03T22:55:31.185Z,2.53
2023-02-03T22:58:34.816Z,2.53
2023-02-03T23:01:38.523Z,1.80
2023-02-03T23:04:43.572Z,1.47
2023-02-03T23:07:47.661Z,1.53
2023-02-03T23:10:51.304Z,1.83
2023-02-03T23:13:54.960Z,1.40
2023-02-03T23:16:58.630Z,2.20
2023-02-03T23:20:04.122Z,1.20
2023-02-03T23:23:07.954Z,1.10
2023-02-03T23:26:11.613Z,1.37
2023-02-03T23:29:15.209Z,1.57
2023-02-03T23:32:18.807Z,1.30
2023-02-03T23:35:41.462Z,1.60
2023-02-03T23:38:46.284Z,1.27
2023-02-03T23:41:49.884Z,1.47
2023-02-03T23:44:53.404Z,1.60
2023-02-03T23:47:57.160Z,1.20
2023-02-03T23:51:02.240Z,1.63
2023-02-03T23:54:05.942Z,1.20
2023-02-03T23:57:09.554Z,1.33
